createdAt,value
2023-01-05T00:00:32.537Z,100029.00
2023-01-05T00:01:14.395Z,100028.72
2023-01-05T00:01:56.224Z,100012.97
2023-01-05T00:02:37.940Z,100038.59
2023-01-05T00:03:19.971Z,100027.16
2023-01-05T00:04:01.768Z,100027.00
2023-01-05T00:04:45.132Z,99997.25
2023-01-05T00:05:26.723Z,100008.31
2023-01-05T00:06:12.537Z,100018.38
2023-01-05T00:06:54.232Z,100014.72
2023-01-05T00:07:35.902Z,100010.25
2023-01-05T00:08:17.556Z,100003.66
2023-01-05T00:08:59.923Z,99991.66
2023-01-05T00:09:41.569Z,100018.28
2023-01-05T00:10:41.815Z,100012.78
2023-01-05T00:11:43.112Z,100008.22
2023-01-05T00:12:51.108Z,100012.34
2023-01-05T00:13:51.255Z,100018.09
2023-01-05T00:14:52.969Z,100003.75
2023-01-05T00:15:56.379Z,100006.41
2023-01-05T00:16:56.822Z,100016.38
2023-01-05T00:17:57.123Z,99948.31
2023-01-05T00:18:57.173Z,99991.13
2023-01-05T00:19:57.408Z,99994.41
2023-01-05T00:20:57.473Z,100008.59
2023-01-05T00:21:57.525Z,100005.19
2023-01-05T00:22:57.569Z,100015.56
2023-01-05T00:23:39.203Z,100002.34
2023-01-05T00:24:20.827Z,99958.75
2023-01-05T00:25:12.474Z,100018.47
2023-01-05T00:25:54.502Z,100022.78
2023-01-05T00:26:36.164Z,100028.25
2023-01-05T00:27:17.850Z,100029.47
2023-01-05T00:27:59.674Z,100001.94
2023-01-05T00:28:41.325Z,100022.34
2023-01-05T00:29:23.773Z,99971.53
2023-01-05T00:30:07.121Z,100001.81
2023-01-05T00:30:48.796Z,100012.34
2023-01-05T00:31:30.488Z,100001.72
2023-01-05T00:32:12.185Z,100009.25
2023-01-05T00:32:54.205Z,100024.16
2023-01-05T00:33:35.837Z,100010.91
2023-01-05T00:34:17.455Z,99994.78
2023-01-05T00:34:59.452Z,99983.00
2023-01-05T00:35:41.185Z,99984.59
2023-01-05T00:36:22.769Z,100013.38
2023-01-05T00:37:04.379Z,99998.44
2023-01-05T00:37:47.288Z,100008.06
2023-01-05T00:38:28.917Z,99992.41
2023-01-05T00:39:10.491Z,99966.25
2023-01-05T00:39:53.839Z,99990.69
2023-01-05T00:40:36.545Z,99989.94
2023-01-05T00:41:18.247Z,100003.19
2023-01-05T00:42:00.046Z,99981.41
2023-01-05T00:42:42.009Z,99985.72
2023-01-05T00:43:24.937Z,99993.75
2023-01-05T00:44:06.722Z,99993.16
2023-01-05T00:44:48.379Z,99996.81
2023-01-05T00:45:30.113Z,99929.00
2023-01-05T00:46:11.842Z,99942.63
2023-01-05T00:46:54.196Z,99982.59
2023-01-05T00:47:35.855Z,99970.09
2023-01-05T00:48:17.539Z,99911.66
2023-01-05T00:48:59.136Z,99959.84
2023-01-05T00:49:41.005Z,99985.19
2023-01-05T00:50:22.957Z,99989.50
2023-01-05T00:51:04.770Z,99988.28
2023-01-05T00:51:46.703Z,99971.75
2023-01-05T00:52:28.332Z,99981.88
2023-01-05T00:53:12.536Z,99981.31
2023-01-05T00:53:54.128Z,99980.41
2023-01-05T00:54:35.735Z,99985.19
2023-01-05T00:55:17.722Z,99975.59
2023-01-05T00:55:59.917Z,99885.66
2023-01-05T00:56:41.515Z,99978.41
2023-01-05T00:57:23.195Z,99928.56
2023-01-05T00:58:07.591Z,99975.59
2023-01-05T00:58:54.409Z,99988.03
2023-01-05T00:59:36.180Z,99982.06
2023-01-05T01:00:19.583Z,99973.63
2023-01-05T01:01:01.632Z,99990.69
2023-01-05T01:01:50.661Z,99940.91
2023-01-05T01:02:32.656Z,99968.09
2023-01-05T01:03:14.455Z,99917.75
2023-01-05T01:03:56.387Z,99978.41
2023-01-05T01:04:38.346Z,99985.38
2023-01-05T01:05:20.041Z,99968.09
2023-01-05T01:06:01.725Z,99981.34
2023-01-05T01:06:43.563Z,100006.31
2023-01-05T01:07:26.013Z,99936.13
2023-01-05T01:08:07.627Z,99966.50
2023-01-05T01:08:49.434Z,99989.31
2023-01-05T01:09:31.897Z,99974.81
2023-01-05T01:10:13.634Z,99968.69
2023-01-05T01:10:55.270Z,99994.22
2023-01-05T01:11:37.067Z,99972.09
2023-01-05T01:12:18.727Z,99982.78
2023-01-05T01:13:00.354Z,99984.53
2023-01-05T01:13:44.155Z,99986.28
2023-01-05T01:14:26.521Z,99982.06
2023-01-05T01:15:09.150Z,99984.53
2023-01-05T01:15:50.796Z,99982.59
2023-01-05T01:16:33.074Z,99982.91
2023-01-05T01:17:15.726Z,99996.41
2023-01-05T01:17:57.414Z,99987.56
2023-01-05T01:18:40.799Z,99986.63
2023-01-05T01:19:24.988Z,100000.72
2023-01-05T01:20:07.226Z,99988.44
2023-01-05T01:20:49.165Z,99961.03
2023-01-05T01:21:30.812Z,99995.81
2023-01-05T01:22:13.113Z,99990.75
2023-01-05T01:22:54.708Z,99985.53
2023-01-05T01:23:37.811Z,99996.41
2023-01-05T01:24:25.676Z,100002.19
2023-01-05T01:25:07.645Z,99994.88
2023-01-05T01:25:49.284Z,99994.88
2023-01-05T01:26:30.989Z,99980.59
2023-01-05T01:27:12.642Z,99978.22
2023-01-05T01:27:54.506Z,99963.84
2023-01-05T01:28:36.249Z,99966.63
2023-01-05T01:29:18.482Z,99986.72
2023-01-05T01:30:00.211Z,99983.06
2023-01-05T01:30:41.890Z,99985.72
2023-01-05T01:31:24.083Z,99982.25
2023-01-05T01:32:05.850Z,99987.91
2023-01-05T01:32:47.624Z,100003.84
2023-01-05T01:33:29.849Z,99972.63
2023-01-05T01:34:11.607Z,99973.09
2023-01-05T01:34:55.131Z,99993.41
2023-01-05T01:35:39.445Z,99993.59
2023-01-05T01:36:21.277Z,99984.78
2023-01-05T01:37:48.251Z,99993.59
2023-01-05T01:38:29.962Z,99986.44
2023-01-05T01:39:12.545Z,99996.06
2023-01-05T01:39:57.128Z,99973.75
2023-01-05T01:40:44.116Z,99957.91
2023-01-05T01:41:26.616Z,99981.31
2023-01-05T01:42:14.416Z,99970.53
2023-01-05T01:42:57.339Z,99944.75
2023-01-05T01:43:50.824Z,100000.53
2023-01-05T01:44:59.039Z,99978.94
2023-01-05T01:45:46.804Z,99951.59
2023-01-05T01:46:29.156Z,99961.66
2023-01-05T01:47:15.543Z,99916.09
2023-01-05T01:48:00.244Z,99993.31
2023-01-05T01:48:47.314Z,99982.31
2023-01-05T01:49:28.930Z,99975.00
2023-01-05T01:50:22.147Z,99984.72
2023-01-05T01:51:10.824Z,99980.50
2023-01-05T01:51:52.436Z,99971.00
2023-01-05T01:52:35.192Z,99997.34
2023-01-05T01:53:28.315Z,99985.09
2023-01-05T01:54:14.408Z,99997.53
2023-01-05T01:54:56.772Z,99978.06
2023-01-05T01:55:39.589Z,99980.13
2023-01-05T01:56:24.346Z,99995.34
2023-01-05T01:57:09.618Z,99985.25
2023-01-05T01:57:51.835Z,99979.66
2023-01-05T01:58:34.144Z,99954.59
2023-01-05T01:59:17.315Z,99989.38
2023-01-05T02:00:02.562Z,99992.22
2023-01-05T02:00:47.511Z,99980.97
2023-01-05T02:01:29.620Z,99987.72
2023-01-05T02:02:12.728Z,99982.97
2023-01-05T02:02:56.140Z,99968.91
2023-01-05T02:03:38.817Z,99995.22
2023-01-05T02:04:23.612Z,99984.44
2023-01-05T02:05:09.222Z,99983.44
2023-01-05T02:05:50.849Z,99968.06
2023-01-05T02:06:32.693Z,99979.50
2023-01-05T02:07:16.146Z,100000.66
2023-01-05T02:07:57.944Z,99966.63
2023-01-05T02:08:39.775Z,99960.72
2023-01-05T02:09:21.557Z,99929.75
2023-01-05T02:10:04.617Z,99974.47
2023-01-05T02:11:12.319Z,99994.94
2023-01-05T02:12:23.216Z,99971.16
2023-01-05T02:13:16.583Z,99982.78
2023-01-05T02:14:45.687Z,99978.88
2023-01-05T02:16:07.691Z,99979.88
2023-01-05T02:17:01.949Z,99981.53
2023-01-05T02:18:06.896Z,99976.66
2023-01-05T02:19:13.378Z,99984.97
2023-01-05T02:20:33.764Z,99966.88
2023-01-05T02:21:22.181Z,99985.19
2023-01-05T02:22:26.171Z,99989.66
2023-01-05T02:23:26.623Z,99990.03
2023-01-05T02:24:50.756Z,99967.78
2023-01-05T02:25:54.839Z,99976.22
2023-01-05T02:27:01.039Z,99984.88
2023-01-05T02:28:09.354Z,99983.16
2023-01-05T02:29:02.822Z,99980.50
2023-01-05T02:30:20.607Z,99982.97
2023-01-05T02:31:47.274Z,99985.53
2023-01-05T02:32:39.981Z,99971.53
2023-01-05T02:33:32.517Z,99967.22
2023-01-05T02:34:28.902Z,99974.34
2023-01-05T02:35:21.233Z,99984.50
2023-01-05T02:36:30.389Z,99981.50
2023-01-05T02:37:30.887Z,99955.31
2023-01-05T02:39:13.911Z,99989.72
2023-01-05T02:40:04.921Z,99975.28
2023-01-05T02:40:57.256Z,99978.75
2023-01-05T02:42:13.130Z,99981.41
2023-01-05T02:42:57.988Z,99963.78
2023-01-05T02:43:39.944Z,99973.63
2023-01-05T02:44:21.846Z,99943.38
2023-01-05T02:45:08.447Z,99969.97
2023-01-05T02:45:50.182Z,99945.66
2023-01-05T02:46:31.859Z,99940.00
2023-01-05T02:47:25.644Z,99974.75
2023-01-05T02:48:07.339Z,99968.44
2023-01-05T02:48:53.128Z,99960.00
2023-01-05T02:49:40.850Z,99962.84
2023-01-05T02:50:32.213Z,99974.09
2023-01-05T02:51:24.958Z,99963.59
2023-01-05T02:52:09.683Z,99975.75
2023-01-05T02:53:00.338Z,99972.09
2023-01-05T02:53:48.748Z,99984.19
2023-01-05T02:54:38.614Z,99958.53
2023-01-05T02:55:26.373Z,99952.53
2023-01-05T02:56:18.012Z,99977.94
2023-01-05T02:57:08.060Z,99946.84
2023-01-05T02:58:14.322Z,99970.91
2023-01-05T02:59:02.816Z,99968.25
2023-01-05T02:59:51.003Z,99954.25
2023-01-05T03:00:41.128Z,99946.66
2023-01-05T03:01:25.766Z,99956.38
2023-01-05T03:02:20.856Z,99978.88
2023-01-05T03:03:25.656Z,99923.06
2023-01-05T03:04:21.968Z,99964.78
2023-01-05T03:05:17.379Z,99956.25
2023-01-05T03:06:10.466Z,99945.84
2023-01-05T03:07:01.967Z,99938.69
2023-01-05T03:07:46.925Z,99948.94
2023-01-05T03:08:33.526Z,99937.50
2023-01-05T03:09:20.049Z,99959.28
2023-01-05T03:10:25.718Z,99956.38
2023-01-05T03:11:29.558Z,99948.59
2023-01-05T03:12:36.308Z,99969.69
2023-01-05T03:13:37.481Z,99882.56
2023-01-05T03:14:36.835Z,99950.22
2023-01-05T03:15:25.022Z,99957.19
2023-01-05T03:16:16.348Z,99952.59
2023-01-05T03:17:01.301Z,99936.16
2023-01-05T03:17:49.834Z,99897.00
2023-01-05T03:18:33.948Z,99922.22
2023-01-05T03:19:55.171Z,99943.72
2023-01-05T03:20:43.250Z,99939.63
2023-01-05T03:21:27.260Z,99950.59
2023-01-05T03:22:40.541Z,99949.28
2023-01-05T03:23:42.320Z,99931.13
2023-01-05T03:24:42.823Z,99959.56
2023-01-05T03:25:46.117Z,99959.19
2023-01-05T03:26:48.212Z,99956.34
2023-01-05T03:27:50.145Z,99897.28
2023-01-05T03:28:56.361Z,99947.56
2023-01-05T03:30:01.152Z,99943.56
2023-01-05T03:31:13.828Z,99944.72
2023-01-05T03:32:30.233Z,99965.75
2023-01-05T03:33:49.656Z,99953.53
2023-01-05T03:35:13.953Z,99959.00
2023-01-05T03:35:58.816Z,99944.47
2023-01-05T03:36:49.202Z,99942.44
2023-01-05T03:37:37.147Z,99947.38
2023-01-05T03:38:25.588Z,99944.91
2023-01-05T03:39:09.606Z,99925.25
2023-01-05T03:39:52.232Z,99934.66
2023-01-05T03:40:37.809Z,99942.97
2023-01-05T03:41:20.480Z,99898.72
2023-01-05T03:42:02.663Z,99939.44
2023-01-05T03:42:46.434Z,99961.38
2023-01-05T03:43:28.507Z,99954.59
2023-01-05T03:44:10.482Z,99962.38
2023-01-05T03:44:54.915Z,99894.25
2023-01-05T03:45:41.341Z,99961.72
2023-01-05T03:46:28.165Z,99926.59
2023-01-05T03:47:09.876Z,99947.47
2023-01-05T03:47:51.954Z,99890.41
2023-01-05T03:48:38.855Z,99930.91
2023-01-05T03:49:21.436Z,99951.31
2023-01-05T03:50:05.547Z,99949.28
2023-01-05T03:50:47.446Z,99933.38
2023-01-05T03:51:32.133Z,99912.81
2023-01-05T03:52:16.640Z,99936.50
2023-01-05T03:52:58.384Z,99973.81
2023-01-05T03:53:44.142Z,99950.06
2023-01-05T03:54:25.818Z,99967.69
2023-01-05T03:55:07.874Z,99968.03
2023-01-05T03:55:49.586Z,99937.22
2023-01-05T03:56:31.531Z,99963.75
2023-01-05T03:57:13.420Z,99954.88
2023-01-05T03:57:55.175Z,99925.63
2023-01-05T03:58:37.077Z,99961.56
2023-01-05T03:59:19.322Z,99966.31
2023-01-05T04:00:02.388Z,99912.28
2023-01-05T04:00:45.581Z,99970.63
2023-01-05T04:01:29.318Z,99921.06
2023-01-05T04:02:11.233Z,99972.09
2023-01-05T04:02:53.665Z,99961.13
2023-01-05T04:03:37.216Z,99909.72
2023-01-05T04:04:21.273Z,99975.94
2023-01-05T04:05:03.172Z,99975.28
2023-01-05T04:05:45.355Z,99976.13
2023-01-05T04:06:27.332Z,99991.84
2023-01-05T04:07:08.925Z,99952.53
2023-01-05T04:07:51.070Z,99973.00
2023-01-05T04:08:32.684Z,99951.59
2023-01-05T04:09:15.060Z,99981.88
2023-01-05T04:09:58.388Z,99970.63
2023-01-05T04:10:40.494Z,99967.06
2023-01-05T04:11:24.517Z,99985.16
2023-01-05T04:12:19.061Z,99979.84
2023-01-05T04:13:00.907Z,99953.06
2023-01-05T04:13:42.918Z,99973.28
2023-01-05T04:14:25.004Z,99972.47
2023-01-05T04:15:08.173Z,99960.09
2023-01-05T04:15:49.936Z,99985.63
2023-01-05T04:16:31.722Z,99893.72
2023-01-05T04:17:16.355Z,99980.13
2023-01-05T04:17:58.012Z,99912.19
2023-01-05T04:18:40.183Z,99961.03
2023-01-05T04:19:24.145Z,99974.38
2023-01-05T04:20:08.603Z,99967.16
2023-01-05T04:20:51.003Z,99977.22
2023-01-05T04:21:32.831Z,99976.41
2023-01-05T04:22:15.412Z,99983.16
2023-01-05T04:22:58.654Z,99986.63
2023-01-05T04:23:41.159Z,100003.75
2023-01-05T04:24:23.589Z,99972.28
2023-01-05T04:25:05.616Z,99980.88
2023-01-05T04:25:47.867Z,99991.09
2023-01-05T04:26:34.652Z,99994.50
2023-01-05T04:27:16.301Z,99986.84
2023-01-05T04:27:58.929Z,99983.72
2023-01-05T04:28:43.800Z,99993.31
2023-01-05T04:29:26.271Z,99989.03
2023-01-05T04:30:09.957Z,99998.81
2023-01-05T04:30:54.708Z,99980.25
2023-01-05T04:31:38.470Z,99923.53
2023-01-05T04:32:21.136Z,99922.97
2023-01-05T04:33:02.895Z,99986.19
2023-01-05T04:33:45.458Z,99981.06
2023-01-05T04:34:31.239Z,99983.59
2023-01-05T04:35:14.999Z,99984.44
2023-01-05T04:35:57.263Z,99989.19
2023-01-05T04:36:42.346Z,99998.44
2023-01-05T04:37:28.520Z,99992.38
2023-01-05T04:38:11.224Z,99994.78
2023-01-05T04:38:53.117Z,100018.47
2023-01-05T04:39:35.693Z,99976.03
2023-01-05T04:40:17.525Z,99997.25
2023-01-05T04:41:04.956Z,100006.03
2023-01-05T04:41:48.576Z,100007.50
2023-01-05T04:42:32.111Z,100022.22
2023-01-05T04:43:13.757Z,100012.63
2023-01-05T04:43:55.367Z,99999.06
2023-01-05T04:44:38.632Z,100004.66
2023-01-05T04:45:21.386Z,99998.44
2023-01-05T04:46:03.905Z,100011.34
2023-01-05T04:46:46.077Z,100023.41
2023-01-05T04:47:28.426Z,100026.72
2023-01-05T04:48:10.962Z,100024.06
2023-01-05T04:48:54.157Z,100017.09
2023-01-05T04:49:36.719Z,100022.94
2023-01-05T04:50:20.185Z,100015.91
2023-01-05T04:51:03.637Z,100007.41
2023-01-05T04:51:48.921Z,100015.38
2023-01-05T04:52:30.830Z,100026.72
2023-01-05T04:53:12.412Z,100013.97
2023-01-05T04:53:56.034Z,100029.84
2023-01-05T04:54:39.436Z,100018.09
2023-01-05T04:55:23.048Z,100012.91
2023-01-05T04:56:05.781Z,100016.91
2023-01-05T04:56:53.545Z,100043.81
2023-01-05T04:57:35.730Z,100031.19
2023-01-05T04:58:17.477Z,100031.94
2023-01-05T04:58:59.114Z,100032.19
2023-01-05T04:59:40.785Z,100025.81
2023-01-05T05:00:22.984Z,100028.66
2023-01-05T05:01:06.369Z,100020.69
2023-01-05T05:01:50.298Z,100029.66
2023-01-05T05:02:32.404Z,100034.94
2023-01-05T05:03:14.787Z,100038.50
2023-01-05T05:03:56.477Z,100044.81
2023-01-05T05:04:39.824Z,100027.00
2023-01-05T05:05:21.502Z,100028.66
2023-01-05T05:06:06.934Z,99975.09
2023-01-05T05:06:48.539Z,100041.34
2023-01-05T05:07:30.735Z,100043.75
2023-01-05T05:08:14.512Z,100039.25
2023-01-05T05:08:56.370Z,100048.66
2023-01-05T05:09:40.025Z,100060.31
2023-01-05T05:10:21.804Z,100016.91
2023-01-05T05:11:04.237Z,100065.78
2023-01-05T05:11:48.496Z,99972.63
2023-01-05T05:12:30.211Z,100071.09
2023-01-05T05:13:11.905Z,100057.53
2023-01-05T05:13:54.070Z,100063.31
2023-01-05T05:14:35.881Z,100048.66
2023-01-05T05:15:17.989Z,100057.28
2023-01-05T05:16:03.757Z,100046.72
2023-01-05T05:16:47.276Z,100018.34
2023-01-05T05:17:28.999Z,100040.13
2023-01-05T05:18:11.039Z,100033.53
2023-01-05T05:18:54.234Z,100039.13
2023-01-05T05:19:39.766Z,100050.94
2023-01-05T05:20:21.558Z,100048.00
2023-01-05T05:21:08.410Z,99994.38
2023-01-05T05:21:51.517Z,100069.09
2023-01-05T05:22:33.400Z,100065.13
2023-01-05T05:23:16.719Z,100056.25
2023-01-05T05:23:58.317Z,100071.91
2023-01-05T05:24:40.096Z,100036.84
2023-01-05T05:25:23.185Z,100042.16
2023-01-05T05:26:05.633Z,100061.53
2023-01-05T05:26:48.219Z,100021.47
2023-01-05T05:27:29.814Z,100062.66
2023-01-05T05:28:11.382Z,100041.75
2023-01-05T05:28:53.105Z,100057.97
2023-01-05T05:29:34.733Z,100058.50
2023-01-05T05:30:16.522Z,100062.75
2023-01-05T05:30:58.562Z,100000.22
2023-01-05T05:31:40.716Z,100074.09
2023-01-05T05:32:22.515Z,100083.16
2023-01-05T05:33:04.231Z,100085.00
2023-01-05T05:33:45.981Z,100078.06
2023-01-05T05:34:27.718Z,100075.75
2023-01-05T05:35:09.538Z,100060.53
2023-01-05T05:35:51.362Z,100071.44
2023-01-05T05:36:33.053Z,100056.97
2023-01-05T05:37:14.701Z,100085.28
2023-01-05T05:37:56.973Z,100070.63
2023-01-05T05:38:38.723Z,100064.50
2023-01-05T05:39:20.648Z,100072.28
2023-01-05T05:40:02.382Z,100009.28
2023-01-05T05:40:44.119Z,100071.28
2023-01-05T05:41:25.891Z,100082.53
2023-01-05T05:42:07.531Z,100086.09
2023-01-05T05:42:49.147Z,100066.97
2023-01-05T05:43:30.711Z,100069.69
2023-01-05T05:44:12.325Z,100053.97
2023-01-05T05:44:53.959Z,100004.38
2023-01-05T05:45:35.628Z,100032.84
2023-01-05T05:46:17.323Z,100047.03
2023-01-05T05:46:59.136Z,100050.78
2023-01-05T05:47:40.822Z,100073.19
2023-01-05T05:48:22.474Z,100043.28
2023-01-05T05:49:04.764Z,100074.56
2023-01-05T05:49:46.428Z,100033.66
2023-01-05T05:50:28.267Z,100055.38
2023-01-05T05:51:10.062Z,100083.38
2023-01-05T05:51:51.680Z,100068.44
2023-01-05T05:52:33.302Z,100051.41
2023-01-05T05:53:15.185Z,100069.25
2023-01-05T05:53:56.903Z,100085.00
2023-01-05T05:54:38.540Z,100056.09
2023-01-05T05:55:20.169Z,100023.13
2023-01-05T05:56:01.837Z,100097.63
2023-01-05T05:56:43.490Z,100096.63
2023-01-05T05:57:25.139Z,100066.34
2023-01-05T05:58:07.063Z,100114.69
2023-01-05T05:58:48.787Z,100101.28
2023-01-05T05:59:30.457Z,100088.66
2023-01-05T06:00:12.781Z,100083.47
2023-01-05T06:00:58.883Z,100101.47
2023-01-05T06:01:40.675Z,100045.22
2023-01-05T06:02:22.575Z,100081.88
2023-01-05T06:03:04.603Z,100102.75
2023-01-05T06:03:46.368Z,100092.22
2023-01-05T06:04:28.114Z,100119.25
2023-01-05T06:05:09.753Z,100104.50
2023-01-05T06:05:51.810Z,100137.75
2023-01-05T06:06:33.408Z,100123.97
2023-01-05T06:07:15.117Z,100147.28
2023-01-05T06:07:56.692Z,100089.31
2023-01-05T06:08:38.348Z,100128.31
2023-01-05T06:09:20.035Z,100138.41
2023-01-05T06:10:01.826Z,100152.22
2023-01-05T06:10:43.424Z,100109.09
2023-01-05T06:11:25.096Z,100122.09
2023-01-05T06:12:07.336Z,100143.06
2023-01-05T06:12:49.208Z,100133.81
2023-01-05T06:13:30.916Z,100162.03
2023-01-05T06:14:12.671Z,100172.00
2023-01-05T06:14:54.322Z,100178.66
2023-01-05T06:15:35.917Z,100155.50
2023-01-05T06:16:17.615Z,100165.00
2023-01-05T06:17:00.590Z,100153.50
2023-01-05T06:17:42.266Z,100115.38
2023-01-05T06:18:23.930Z,100135.53
2023-01-05T06:19:05.581Z,100172.00
2023-01-05T06:19:47.163Z,100104.84
2023-01-05T06:20:28.758Z,100183.44
2023-01-05T06:21:10.401Z,100110.41
2023-01-05T06:21:52.179Z,100132.53
2023-01-05T06:22:33.914Z,100159.00
2023-01-05T06:23:15.548Z,100167.94
2023-01-05T06:24:00.190Z,100185.53
2023-01-05T06:24:43.578Z,100173.56
2023-01-05T06:25:25.220Z,100191.09
2023-01-05T06:26:06.897Z,100193.59
2023-01-05T06:26:48.509Z,100153.19
2023-01-05T06:27:30.230Z,100190.50
2023-01-05T06:28:15.640Z,100154.56
2023-01-05T06:29:00.218Z,100084.28
2023-01-05T06:29:41.925Z,100193.31
2023-01-05T06:30:23.553Z,100199.38
2023-01-05T06:31:06.158Z,100177.56
2023-01-05T06:31:47.790Z,100184.53
2023-01-05T06:32:29.440Z,100133.03
2023-01-05T06:33:11.035Z,100155.31
2023-01-05T06:33:52.792Z,100154.16
2023-01-05T06:34:34.367Z,100177.19
2023-01-05T06:35:16.066Z,100189.00
2023-01-05T06:36:00.608Z,100158.31
2023-01-05T06:36:42.308Z,100142.34
2023-01-05T06:37:23.901Z,100175.00
2023-01-05T06:38:05.646Z,100153.38
2023-01-05T06:38:47.429Z,100150.09
2023-01-05T06:39:29.162Z,100163.63
2023-01-05T06:40:11.874Z,100170.31
2023-01-05T06:40:54.619Z,100173.25
2023-01-05T06:41:36.295Z,100125.34
2023-01-05T06:42:23.032Z,100171.31
2023-01-05T06:43:05.158Z,100161.25
2023-01-05T06:43:46.785Z,100122.69
2023-01-05T06:44:28.442Z,100170.56
2023-01-05T06:45:13.371Z,100166.00
2023-01-05T06:45:55.038Z,100173.72
2023-01-05T06:46:36.683Z,100158.47
2023-01-05T06:47:19.018Z,100186.31
2023-01-05T06:48:01.068Z,100186.19
2023-01-05T06:48:42.712Z,100172.69
2023-01-05T06:49:24.424Z,100202.47
2023-01-05T06:50:07.025Z,100195.31
2023-01-05T06:50:48.712Z,100177.66
2023-01-05T06:51:30.437Z,100183.06
2023-01-05T06:52:16.199Z,100182.50
2023-01-05T06:52:58.964Z,100193.84
2023-01-05T06:53:40.585Z,100158.88
2023-01-05T06:54:22.274Z,100139.13
2023-01-05T06:55:04.451Z,100153.25
2023-01-05T06:55:46.085Z,100180.59
2023-01-05T06:56:27.697Z,100170.59
2023-01-05T06:57:09.434Z,100145.50
2023-01-05T06:57:54.418Z,100149.34
2023-01-05T06:58:40.365Z,100133.38
2023-01-05T06:59:22.009Z,100146.31
2023-01-05T07:00:09.819Z,100177.09
2023-01-05T07:00:53.945Z,100165.19
2023-01-05T07:01:36.136Z,100152.97
2023-01-05T07:02:18.080Z,100177.72
2023-01-05T07:02:59.753Z,100166.81
2023-01-05T07:03:41.483Z,100127.34
2023-01-05T07:04:23.296Z,100177.84
2023-01-05T07:05:05.667Z,100071.38
2023-01-05T07:05:47.242Z,100148.47
2023-01-05T07:06:29.053Z,100173.72
2023-01-05T07:07:14.604Z,100176.34
2023-01-05T07:07:56.276Z,100151.59
2023-01-05T07:08:37.861Z,100144.81
2023-01-05T07:09:19.506Z,100107.72
2023-01-05T07:10:01.240Z,100101.31
2023-01-05T07:10:42.816Z,100166.09
2023-01-05T07:11:24.433Z,100145.81
2023-01-05T07:12:06.625Z,100159.03
2023-01-05T07:12:48.213Z,100176.44
2023-01-05T07:13:29.801Z,100170.09
2023-01-05T07:14:11.429Z,100104.19
2023-01-05T07:14:57.529Z,100138.47
2023-01-05T07:15:39.687Z,100112.75
2023-01-05T07:16:21.466Z,100170.47
2023-01-05T07:17:03.382Z,100140.06
2023-01-05T07:17:44.983Z,100159.56
2023-01-05T07:18:26.558Z,100164.88
2023-01-05T07:19:08.139Z,100120.25
2023-01-05T07:19:49.788Z,100140.31
2023-01-05T07:20:31.430Z,100170.00
2023-01-05T07:21:13.014Z,100161.53
2023-01-05T07:21:56.905Z,100155.16
2023-01-05T07:22:38.820Z,100165.53
2023-01-05T07:23:20.447Z,100183.59
2023-01-05T07:24:02.080Z,100078.28
2023-01-05T07:24:43.749Z,100152.56
2023-01-05T07:25:31.143Z,100190.53
2023-01-05T07:26:12.859Z,100153.03
2023-01-05T07:26:54.478Z,100164.22
2023-01-05T07:27:36.098Z,100189.72
2023-01-05T07:28:17.671Z,100185.03
2023-01-05T07:28:59.225Z,100179.53
2023-01-05T07:29:40.886Z,100174.22
2023-01-05T07:30:22.686Z,100106.50
2023-01-05T07:31:07.187Z,100176.88
2023-01-05T07:31:52.169Z,100193.63
2023-01-05T07:32:33.957Z,100159.91
2023-01-05T07:33:15.537Z,100142.25
2023-01-05T07:33:57.121Z,100185.03
2023-01-05T07:34:38.709Z,100124.00
2023-01-05T07:35:20.352Z,100181.75
2023-01-05T07:36:03.997Z,100183.38
2023-01-05T07:36:45.621Z,100176.41
2023-01-05T07:37:27.487Z,100154.69
2023-01-05T07:38:09.251Z,100146.09
2023-01-05T07:38:52.257Z,100167.59
2023-01-05T07:39:33.990Z,100164.59
2023-01-05T07:40:15.671Z,100158.81
2023-01-05T07:41:01.306Z,100154.22
2023-01-05T07:41:43.775Z,100120.06
2023-01-05T07:42:26.128Z,100188.06
2023-01-05T07:43:07.856Z,100190.53
2023-01-05T07:43:50.032Z,100105.16
2023-01-05T07:44:31.677Z,100159.09
2023-01-05T07:45:13.336Z,100158.34
2023-01-05T07:45:59.592Z,100157.16
2023-01-05T07:46:41.272Z,100156.81
2023-01-05T07:47:22.994Z,100144.56
2023-01-05T07:48:04.715Z,100163.53
2023-01-05T07:48:46.385Z,100171.97
2023-01-05T07:49:29.349Z,100188.97
2023-01-05T07:50:11.052Z,100167.88
2023-01-05T07:50:53.303Z,100166.22
2023-01-05T07:51:35.713Z,100137.22
2023-01-05T07:52:17.752Z,100175.97
2023-01-05T07:52:59.905Z,100185.09
2023-01-05T07:53:44.597Z,100187.88
2023-01-05T07:54:27.428Z,100136.31
2023-01-05T07:55:09.656Z,100202.78
2023-01-05T07:55:59.124Z,100190.06
2023-01-05T07:56:40.842Z,100184.56
2023-01-05T07:57:22.486Z,100170.00
2023-01-05T07:58:04.114Z,100169.53
2023-01-05T07:58:45.747Z,100140.13
2023-01-05T07:59:28.298Z,100180.09
2023-01-05T08:00:10.870Z,100195.94
2023-01-05T08:00:56.169Z,100185.03
2023-01-05T08:01:37.860Z,100201.78
2023-01-05T08:02:20.515Z,100155.88
2023-01-05T08:03:02.376Z,100196.03
2023-01-05T08:03:44.577Z,100208.28
2023-01-05T08:04:26.441Z,100181.44
2023-01-05T08:05:08.837Z,100181.28
2023-01-05T08:05:50.471Z,100206.84
2023-01-05T08:06:33.327Z,100163.78
2023-01-05T08:07:15.677Z,100154.03
2023-01-05T08:07:57.310Z,100206.72
2023-01-05T08:08:39.154Z,100210.50
2023-01-05T08:09:39.791Z,100205.91
2023-01-05T08:10:30.651Z,100183.34
2023-01-05T08:11:17.009Z,100216.44
2023-01-05T08:11:58.853Z,100188.63
2023-01-05T08:13:00.494Z,100200.91
2023-01-05T08:14:00.328Z,100204.78
2023-01-05T08:14:42.021Z,100098.06
2023-01-05T08:15:23.795Z,100205.47
2023-01-05T08:16:05.982Z,100149.03
2023-01-05T08:16:47.760Z,100215.09
2023-01-05T08:17:29.413Z,100235.16
2023-01-05T08:18:11.227Z,100209.22
2023-01-05T08:18:54.550Z,100208.03
2023-01-05T08:19:36.261Z,100224.34
2023-01-05T08:20:18.215Z,100192.72
2023-01-05T08:21:04.353Z,100228.00
2023-01-05T08:21:46.022Z,100223.53
2023-01-05T08:22:27.638Z,100210.97
2023-01-05T08:23:09.381Z,100223.53
2023-01-05T08:23:53.056Z,100185.94
2023-01-05T08:24:34.829Z,100199.69
2023-01-05T08:25:16.582Z,100223.72
2023-01-05T08:26:02.795Z,100210.88
2023-01-05T08:26:44.573Z,100211.13
2023-01-05T08:27:26.402Z,100213.34
2023-01-05T08:28:08.001Z,100212.53
2023-01-05T08:28:50.953Z,100229.72
2023-01-05T08:29:32.662Z,100227.72
2023-01-05T08:30:14.802Z,100203.34
2023-01-05T08:31:04.644Z,100227.44
2023-01-05T08:31:46.394Z,100245.13
2023-01-05T08:32:28.151Z,100235.56
2023-01-05T08:33:10.264Z,100246.94
2023-01-05T08:33:55.429Z,100237.06
2023-01-05T08:34:37.224Z,100238.97
2023-01-05T08:35:18.883Z,100226.88
2023-01-05T08:36:00.718Z,100234.41
2023-01-05T08:36:42.402Z,100229.72
2023-01-05T08:37:24.061Z,100254.38
2023-01-05T08:38:05.689Z,100185.34
2023-01-05T08:38:50.738Z,100240.34
2023-01-05T08:39:32.512Z,100257.22
2023-01-05T08:40:14.281Z,100256.22
2023-01-05T08:40:59.617Z,100126.84
2023-01-05T08:41:41.330Z,100233.19
2023-01-05T08:42:23.262Z,100264.22
2023-01-05T08:43:06.350Z,100244.88